Time;durP1;ratioP1;P1;durP2;ratioP2;P2;SDS_P1;SDS_P2;PMS_P1;PMS_P2;Temp;Humidity;BMP_temperature;BMP_pressure;BME280_temperature;BME280_humidity;BME280_pressure;Samples;Min_cycle;Max_cycle;Signal;HPM_P1;HPM_P2
2023/02/19 00:01:52;;;;;;;30.37;25.33;;;10.40;99.90;;;;;;5072667;28;20474;-83
2023/02/19 00:04:21;;;;;;;27.53;22.23;;;10.40;99.90;;;;;;5061337;28;20455;-82
2023/02/19 00:06:48;;;;;;;27.57;21.03;;;10.40;99.90;;;;;;5059790;28;20869;-82
2023/02/19 00:09:17;;;;;;;29.97;22.43;;;10.40;99.90;;;;;;5061413;28;20522;-83
2023/02/19 00:11:46;;;;;;;30.93;21.10;;;10.40;99.90;;;;;;5063776;28;20430;-82
2023/02/19 00:14:16;;;;;;;29.13;22.07;;;10.40;99.90;;;;;;5069815;28;20462;-83
2023/02/19 00:16:44;;;;;;;31.13;22.43;;;10.40;99.90;;;;;;5068490;28;20453;-82
2023/02/19 00:19:14;;;;;;;29.00;21.73;;;10.40;99.90;;;;;;5064607;28;20487;-82
2023/02/19 00:21:40;;;;;;;26.83;22.10;;;10.40;99.90;;;;;;5062392;28;20450;-83
2023/02/19 00:24:10;;;;;;;34.00;21.50;;;10.40;99.90;;;;;;5073092;28;20454;-82
2023/02/19 00:26:38;;;;;;;26.23;20.30;;;10.40;99.90;;;;;;5065722;28;20439;-82
2023/02/19 00:29:05;;;;;;;30.63;21.43;;;10.40;99.90;;;;;;5056156;28;20614;-81
2023/02/19 00:31:33;;;;;;;28.37;21.83;;;10.40;99.90;;;;;;5054547;28;20449;-81
2023/02/19 00:34:04;;;;;;;27.30;19.80;;;10.40;99.90;;;;;;5056433;28;20532;-82
2023/02/19 00:36:34;;;;;;;29.13;20.37;;;10.50;99.90;;;;;;5049741;28;20453;-81
2023/02/19 00:39:05;;;;;;;25.37;19.17;;;10.50;99.90;;;;;;5047479;28;20480;-82
2023/02/19 00:41:33;;;;;;;25.30;18.30;;;10.50;99.90;;;;;;5055359;28;20465;-82
2023/02/19 00:44:01;;;;;;;23.90;18.67;;;10.40;99.90;;;;;;5055995;28;20461;-83
2023/02/19 00:46:31;;;;;;;24.00;18.30;;;10.50;99.90;;;;;;5052504;28;20477;-81
2023/02/19 00:48:58;;;;;;;23.60;17.13;;;10.50;99.90;;;;;;5055836;28;20947;-79
2023/02/19 00:51:29;;;;;;;22.57;17.47;;;10.50;99.90;;;;;;5057100;28;20461;-81
2023/02/19 00:53:56;;;;;;;24.47;17.13;;;10.50;99.90;;;;;;5059345;28;20531;-79
2023/02/19 00:56:23;;;;;;;19.97;16.87;;;10.50;99.90;;;;;;5058600;28;20561;-81
2023/02/19 00:58:50;;;;;;;20.57;15.83;;;10.50;99.90;;;;;;5059042;28;20490;-81
2023/02/19 01:01:18;;;;;;;19.20;15.80;;;10.50;99.90;;;;;;5051648;28;20859;-81
2023/02/19 01:03:45;;;;;;;18.10;14.43;;;10.50;99.90;;;;;;5056653;28;20452;-80
2023/02/19 01:06:14;;;;;;;18.70;15.90;;;10.50;99.90;;;;;;5058585;28;20475;-81
2023/02/19 01:08:42;;;;;;;20.80;16.00;;;10.50;99.90;;;;;;5059788;28;20464;-81
2023/02/19 01:11:13;;;;;;;21.00;15.47;;;10.50;99.90;;;;;;5059828;28;20463;-81
2023/02/19 01:13:40;;;;;;;22.37;16.70;;;10.50;99.90;;;;;;5060543;28;20461;-80
2023/02/19 01:16:10;;;;;;;22.43;16.20;;;10.40;99.90;;;;;;5060872;28;20475;-81
2023/02/19 01:18:37;;;;;;;22.30;17.60;;;10.40;99.90;;;;;;5061294;28;20452;-81
2023/02/19 01:21:06;;;;;;;22.73;18.23;;;10.40;99.90;;;;;;5060177;28;20463;-81
2023/02/19 01:23:34;;;;;;;24.63;17.40;;;10.50;99.90;;;;;;5060973;28;20454;-80
2023/02/19 01:26:04;;;;;;;22.60;17.83;;;10.50;99.90;;;;;;5061561;28;20488;-81
2023/02/19 01:28:31;;;;;;;19.53;16.53;;;10.50;99.90;;;;;;5052490;28;20458;-81
2023/02/19 01:31:01;;;;;;;22.27;16.77;;;10.50;99.90;;;;;;5061069;28;20456;-81
2023/02/19 01:33:28;;;;;;;19.90;15.97;;;10.60;99.90;;;;;;5060203;28;20523;-81
2023/02/19 01:35:55;;;;;;;18.23;14.93;;;10.50;99.90;;;;;;5060804;28;20502;-80
2023/02/19 01:38:21;;;;;;;23.53;16.97;;;10.50;99.90;;;;;;5059691;28;20549;-80
2023/02/19 01:40:55;;;;;;;24.50;17.43;;;10.50;99.90;;;;;;5058579;28;20487;-81
2023/02/19 01:43:23;;;;;;;29.53;18.30;;;10.60;99.90;;;;;;5059396;28;20478;-81
2023/02/19 01:45:51;;;;;;;31.70;20.97;;;10.60;99.90;;;;;;5057475;28;20570;-81
2023/02/19 01:48:23;;;;;;;28.67;18.87;;;10.50;99.90;;;;;;5059311;28;20448;-81
2023/02/19 01:50:53;;;;;;;28.33;21.50;;;10.50;99.90;;;;;;5057725;28;20431;-81
2023/02/19 01:53:24;;;;;;;35.37;22.40;;;10.50;99.90;;;;;;5059854;28;20446;-80
2023/02/19 01:55:56;;;;;;;26.40;20.00;;;10.50;99.90;;;;;;5058091;28;20563;-80
2023/02/19 01:58:27;;;;;;;32.77;21.50;;;10.50;99.90;;;;;;5068129;28;20453;-81
2023/02/19 02:00:54;;;;;;;33.93;22.13;;;10.50;99.90;;;;;;5062001;28;20567;-82
2023/02/19 02:03:22;;;;;;;28.00;20.63;;;10.50;99.90;;;;;;5067894;28;20452;-81
2023/02/19 02:05:56;;;;;;;28.93;20.07;;;10.40;99.90;;;;;;5066247;28;20478;-80
2023/02/19 02:11:09;;;;;;;21.27;16.20;;;10.40;99.90;;;;;;5065015;28;20446;-81
2023/02/19 02:13:39;;;;;;;24.87;16.73;;;10.40;99.90;;;;;;5067895;28;20534;-82
2023/02/19 02:16:21;;;;;;;21.77;16.47;;;10.40;99.90;;;;;;5056771;28;20511;-81
2023/02/19 02:18:59;;;;;;;21.87;15.20;;;10.40;99.90;;;;;;5050933;28;20983;-80
2023/02/19 02:21:58;;;;;;;21.87;14.87;;;10.40;99.90;;;;;;5066286;28;20439;-81
2023/02/19 02:24:58;;;;;;;18.90;15.30;;;10.40;99.90;;;;;;5068518;28;20522;-80
2023/02/19 02:27:39;;;;;;;25.13;16.87;;;10.40;99.90;;;;;;5064457;28;20471;-81
2023/02/19 02:30:24;;;;;;;28.40;21.10;;;10.40;99.90;;;;;;5060943;28;20546;-81
2023/02/19 02:32:56;;;;;;;31.70;20.63;;;10.40;99.90;;;;;;5059623;28;20443;-82
2023/02/19 02:35:26;;;;;;;33.97;22.10;;;10.40;99.90;;;;;;5058137;28;20481;-81
2023/02/19 02:37:58;;;;;;;39.83;24.23;;;10.40;99.90;;;;;;5057870;28;20454;-81
2023/02/19 02:40:25;;;;;;;33.27;25.03;;;10.40;99.90;;;;;;5058618;28;20467;-81
2023/02/19 02:42:52;;;;;;;37.90;25.83;;;10.30;99.90;;;;;;5057914;28;20454;-81
2023/02/19 02:45:35;;;;;;;40.83;25.33;;;10.30;99.90;;;;;;5057516;28;20475;-80
2023/02/19 02:48:08;;;;;;;35.27;23.57;;;10.20;99.90;;;;;;5047077;28;20479;-81
2023/02/19 02:50:40;;;;;;;42.03;26.80;;;10.20;99.90;;;;;;5038241;28;21001;-81
2023/02/19 02:55:56;;;;;;;41.93;26.47;;;10.20;99.90;;;;;;5057339;28;20567;-80
2023/02/19 02:58:25;;;;;;;42.97;26.57;;;10.20;99.90;;;;;;5056982;28;20543;-80
2023/02/19 03:03:44;;;;;;;43.23;27.80;;;10.20;99.90;;;;;;5056570;28;20516;-81
2023/02/19 03:06:15;;;;;;;45.00;29.63;;;10.20;99.90;;;;;;5057088;28;20475;-81
2023/02/19 03:08:47;;;;;;;45.63;27.63;;;10.20;99.90;;;;;;5057301;28;20535;-81
2023/02/19 03:19:44;;;;;;;36.23;23.50;;;10.10;99.90;;;;;;5077850;28;20490;-82
2023/02/19 03:22:16;;;;;;;31.77;21.27;;;10.10;99.90;;;;;;5076083;28;20419;-81
2023/02/19 03:27:35;;;;;;;30.50;20.53;;;10.10;99.90;;;;;;5056207;28;20465;-79
2023/02/19 03:30:08;;;;;;;26.47;19.47;;;10.10;99.90;;;;;;5056420;28;20457;-80
2023/02/19 03:32:39;;;;;;;27.60;19.10;;;10.10;99.90;;;;;;5055661;28;20464;-80
2023/02/19 03:35:11;;;;;;;27.77;18.43;;;10.10;99.90;;;;;;5055274;28;20471;-80
2023/02/19 03:37:44;;;;;;;27.87;16.77;;;10.10;99.90;;;;;;5056764;28;20438;-80
2023/02/19 03:40:11;;;;;;;29.67;19.03;;;10.10;99.90;;;;;;5055506;28;20472;-80
2023/02/19 03:42:42;;;;;;;25.67;19.00;;;10.10;99.90;;;;;;5056403;28;20465;-80
2023/02/19 03:45:23;;;;;;;30.73;19.70;;;10.10;99.90;;;;;;5056162;28;20486;-80
2023/02/19 03:47:58;;;;;;;28.03;18.37;;;10.10;99.90;;;;;;5070607;28;20466;-80
2023/02/19 03:50:28;;;;;;;32.13;19.53;;;10.10;99.90;;;;;;5059575;28;20460;-80
2023/02/19 03:53:02;;;;;;;28.03;18.03;;;10.10;99.90;;;;;;5057044;28;20451;-80
2023/02/19 03:55:35;;;;;;;25.27;14.87;;;10.20;99.90;;;;;;5058864;28;21034;-81
2023/02/19 03:58:08;;;;;;;22.90;16.27;;;10.20;99.90;;;;;;5058608;28;20523;-81
2023/02/19 04:00:41;;;;;;;27.57;17.07;;;10.10;99.90;;;;;;5083333;22;20522;-84
2023/02/19 04:03:18;;;;;;;25.47;15.93;;;10.10;99.90;;;;;;5054352;28;20454;-84
2023/02/19 04:05:48;;;;;;;23.13;14.83;;;10.10;99.90;;;;;;5042182;28;20540;-83
2023/02/19 04:08:18;;;;;;;21.40;16.10;;;10.00;99.90;;;;;;5058668;28;20546;-84
2023/02/19 04:10:46;;;;;;;24.30;16.30;;;10.00;99.90;;;;;;5054924;28;20920;-84
2023/02/19 04:13:18;;;;;;;23.50;15.40;;;10.00;99.90;;;;;;5048478;28;20819;-84
2023/02/19 04:15:47;;;;;;;24.70;15.53;;;10.10;99.90;;;;;;5036964;28;20523;-84
2023/02/19 04:18:19;;;;;;;22.10;15.30;;;10.10;99.90;;;;;;5038814;28;20456;-82
2023/02/19 04:20:48;;;;;;;23.70;14.13;;;10.00;99.90;;;;;;5061318;28;20544;-82
2023/02/19 04:23:18;;;;;;;22.50;15.60;;;10.00;99.90;;;;;;5069385;28;20494;-83
2023/02/19 04:25:48;;;;;;;29.30;15.50;;;10.00;99.90;;;;;;5070111;28;20451;-83
2023/02/19 04:28:16;;;;;;;22.63;15.17;;;10.00;99.90;;;;;;5069410;28;20455;-84
2023/02/19 04:30:44;;;;;;;25.03;16.70;;;10.00;99.90;;;;;;5069070;28;20566;-83
2023/02/19 04:33:11;;;;;;;24.40;14.77;;;9.90;99.90;;;;;;5067905;28;20541;-84
2023/02/19 04:35:39;;;;;;;20.40;15.00;;;9.90;99.90;;;;;;5057873;28;20529;-84
2023/02/19 04:38:06;;;;;;;19.20;14.33;;;9.90;99.90;;;;;;5057214;28;20565;-84
2023/02/19 04:40:32;;;;;;;24.40;14.17;;;9.90;99.90;;;;;;5055966;28;20480;-82
2023/02/19 04:42:59;;;;;;;22.23;13.77;;;9.90;99.90;;;;;;5056355;28;20467;-83
2023/02/19 04:45:26;;;;;;;21.70;13.63;;;9.90;99.90;;;;;;5056569;28;20537;-84
2023/02/19 04:47:53;;;;;;;22.87;15.63;;;9.90;99.90;;;;;;5056884;28;20541;-83
2023/02/19 04:50:21;;;;;;;26.87;15.27;;;9.90;99.90;;;;;;5056375;28;20454;-81
2023/02/19 04:52:50;;;;;;;21.77;14.30;;;10.00;99.90;;;;;;5057056;28;20986;-83
2023/02/19 04:55:17;;;;;;;24.73;14.87;;;10.00;99.90;;;;;;5056454;28;20866;-84
2023/02/19 04:57:44;;;;;;;25.90;16.47;;;10.00;99.90;;;;;;5057626;28;20494;-83
2023/02/19 05:00:12;;;;;;;21.00;14.70;;;9.90;99.90;;;;;;5056869;28;20555;-83
2023/02/19 05:02:39;;;;;;;22.33;14.50;;;9.90;99.90;;;;;;5056327;28;20934;-82
2023/02/19 05:05:06;;;;;;;21.57;13.17;;;9.90;99.90;;;;;;5056956;28;20445;-83
2023/02/19 05:07:33;;;;;;;25.27;14.70;;;9.90;99.90;;;;;;5056360;28;20542;-84
2023/02/19 05:10:02;;;;;;;28.77;12.90;;;9.90;99.90;;;;;;5056450;28;20447;-82
2023/02/19 05:12:30;;;;;;;16.87;12.00;;;9.90;99.90;;;;;;5056935;28;20475;-82
2023/02/19 05:14:57;;;;;;;19.87;12.63;;;9.80;99.90;;;;;;5056400;28;20561;-82
2023/02/19 05:17:23;;;;;;;16.43;11.40;;;9.80;99.90;;;;;;5057096;28;20460;-82
2023/02/19 05:19:50;;;;;;;20.10;11.63;;;9.80;99.90;;;;;;5070519;28;20454;-83
2023/02/19 05:22:17;;;;;;;20.93;12.53;;;9.80;99.90;;;;;;5071885;28;20547;-83
2023/02/19 05:24:44;;;;;;;19.80;13.60;;;9.80;99.90;;;;;;5071576;28;20519;-83
2023/02/19 05:27:13;;;;;;;21.13;14.10;;;9.80;99.90;;;;;;5072036;28;20465;-83
2023/02/19 05:29:39;;;;;;;25.60;14.27;;;9.70;99.90;;;;;;5066399;28;20453;-83
2023/02/19 05:32:06;;;;;;;17.63;13.13;;;9.70;99.90;;;;;;5061180;28;20473;-83
2023/02/19 05:34:33;;;;;;;24.77;15.20;;;9.70;99.90;;;;;;5064166;28;20549;-83
2023/02/19 05:37:00;;;;;;;23.03;15.37;;;9.70;99.90;;;;;;5072122;28;20460;-82
2023/02/19 05:39:26;;;;;;;21.77;13.70;;;9.70;99.90;;;;;;5068055;28;20450;-84
2023/02/19 05:41:53;;;;;;;30.60;15.77;;;9.70;99.90;;;;;;5062866;28;21040;-83
2023/02/19 05:44:21;;;;;;;16.83;13.90;;;9.70;99.90;;;;;;5067862;28;20541;-83
2023/02/19 05:46:48;;;;;;;27.93;15.23;;;9.70;99.90;;;;;;5075067;28;20487;-82
2023/02/19 05:49:15;;;;;;;18.87;15.27;;;9.70;99.90;;;;;;5075586;28;20501;-82
2023/02/19 05:51:42;;;;;;;17.17;14.23;;;9.60;99.90;;;;;;5075141;28;20507;-83
2023/02/19 05:54:09;;;;;;;29.13;15.67;;;9.70;99.90;;;;;;5075504;28;20583;-83
2023/02/19 05:56:37;;;;;;;26.43;15.10;;;9.60;99.90;;;;;;5072344;28;20541;-83
2023/02/19 05:59:07;;;;;;;22.50;15.70;;;9.70;99.90;;;;;;5065699;28;20510;-83
2023/02/19 06:01:35;;;;;;;25.33;15.20;;;9.70;99.90;;;;;;5060617;28;20908;-84
2023/02/19 06:04:02;;;;;;;24.03;15.50;;;9.70;99.90;;;;;;5061293;28;20520;-84
2023/02/19 06:06:29;;;;;;;23.30;14.53;;;9.70;99.90;;;;;;5060859;28;20486;-84
2023/02/19 06:08:56;;;;;;;20.10;14.30;;;9.60;99.90;;;;;;5061860;28;20534;-82
2023/02/19 06:11:23;;;;;;;22.43;14.90;;;9.60;99.90;;;;;;5061715;28;20556;-84
2023/02/19 06:13:50;;;;;;;18.87;13.60;;;9.60;99.90;;;;;;5050961;28;20454;-83
2023/02/19 06:16:18;;;;;;;21.83;13.50;;;9.60;99.90;;;;;;5061088;28;20453;-83
2023/02/19 06:18:46;;;;;;;17.17;13.10;;;9.60;99.90;;;;;;5064304;28;20522;-83
2023/02/19 06:21:13;;;;;;;21.07;14.50;;;9.70;99.90;;;;;;5062597;28;20573;-82
2023/02/19 06:23:40;;;;;;;17.33;13.40;;;9.70;99.90;;;;;;5059212;28;20535;-82
2023/02/19 06:26:09;;;;;;;27.40;15.87;;;9.70;99.90;;;;;;5041550;28;20966;-83
2023/02/19 06:28:36;;;;;;;18.80;11.97;;;9.70;99.90;;;;;;5061002;28;20445;-82
2023/02/19 06:31:03;;;;;;;18.97;13.30;;;9.70;99.90;;;;;;5060173;28;20489;-82
2023/02/19 06:33:30;;;;;;;23.30;14.53;;;9.70;99.90;;;;;;5055505;28;20458;-84
2023/02/19 06:36:00;;;;;;;16.90;13.10;;;9.70;99.90;;;;;;5042115;28;20459;-84
2023/02/19 06:38:27;;;;;;;20.10;13.63;;;9.60;99.90;;;;;;5058144;28;20453;-81
2023/02/19 06:40:54;;;;;;;22.37;14.53;;;9.70;99.90;;;;;;5060093;28;20500;-82
2023/02/19 06:43:24;;;;;;;19.30;13.07;;;9.70;99.90;;;;;;5054256;28;20548;-82
2023/02/19 06:45:51;;;;;;;18.10;13.80;;;9.70;99.90;;;;;;5051318;28;20842;-82
2023/02/19 06:48:17;;;;;;;21.70;13.70;;;9.70;99.90;;;;;;5059383;28;20471;-83
2023/02/19 06:50:44;;;;;;;19.97;13.10;;;9.60;99.90;;;;;;5058201;28;20551;-85
2023/02/19 06:53:12;;;;;;;16.47;13.00;;;9.60;99.90;;;;;;5055748;28;20528;-84
2023/02/19 06:55:40;;;;;;;19.80;13.03;;;9.60;99.90;;;;;;5059337;28;21021;-85
2023/02/19 06:58:07;;;;;;;19.13;12.83;;;9.60;99.90;;;;;;5059293;28;20460;-85
2023/02/19 07:00:34;;;;;;;18.23;14.37;;;9.60;99.90;;;;;;5058186;28;20477;-85
2023/02/19 07:03:01;;;;;;;17.60;12.10;;;9.60;99.90;;;;;;5058398;28;20454;-85
2023/02/19 07:05:28;;;;;;;16.63;12.00;;;9.60;99.90;;;;;;5059108;28;20806;-85
2023/02/19 07:07:54;;;;;;;18.37;13.77;;;9.60;99.90;;;;;;5058612;28;20528;-84
2023/02/19 07:10:23;;;;;;;18.70;11.17;;;9.60;99.90;;;;;;5059455;28;20823;-85
2023/02/19 07:13:09;;;;;;;17.57;10.27;;;9.60;99.90;;;;;;5050632;28;20536;-85
2023/02/19 07:15:36;;;;;;;23.47;13.77;;;9.60;99.90;;;;;;5044740;28;20473;-85
2023/02/19 07:18:04;;;;;;;23.47;12.53;;;9.70;99.90;;;;;;5053262;28;20993;-84
2023/02/19 07:20:30;;;;;;;17.53;11.50;;;9.70;99.90;;;;;;5045101;28;20454;-83
2023/02/19 07:22:57;;;;;;;20.63;13.10;;;9.80;99.90;;;;;;5044864;28;20478;-84
2023/02/19 07:25:33;;;;;;;18.77;12.20;;;9.80;99.90;;;;;;5050621;28;20539;-83
2023/02/19 07:28:00;;;;;;;20.20;11.20;;;9.80;99.90;;;;;;5046589;28;20543;-82
2023/02/19 07:30:27;;;;;;;17.33;12.70;;;9.80;99.90;;;;;;5046280;28;20508;-83
2023/02/19 07:32:53;;;;;;;15.10;11.97;;;9.80;99.90;;;;;;5053061;28;20536;-83
2023/02/19 07:35:20;;;;;;;17.37;12.00;;;9.80;99.90;;;;;;5052800;28;20561;-83
2023/02/19 07:37:47;;;;;;;16.27;12.67;;;9.70;99.90;;;;;;5046834;28;20457;-83
2023/02/19 07:40:14;;;;;;;21.87;12.97;;;9.80;99.90;;;;;;5052204;28;20466;-82
2023/02/19 07:42:42;;;;;;;15.73;11.80;;;9.80;99.90;;;;;;5046103;28;20493;-84
2023/02/19 07:45:09;;;;;;;23.27;14.50;;;9.80;99.90;;;;;;5053694;28;20542;-83
2023/02/19 07:47:36;;;;;;;14.87;11.87;;;9.80;99.90;;;;;;5055497;28;20455;-83
2023/02/19 07:50:04;;;;;;;23.00;11.73;;;9.80;99.90;;;;;;5051695;28;20458;-83
2023/02/19 07:52:30;;;;;;;20.53;12.17;;;9.90;99.90;;;;;;5046873;28;20468;-82
2023/02/19 07:54:57;;;;;;;17.27;11.57;;;9.90;99.90;;;;;;5057409;28;20538;-82
2023/02/19 07:57:24;;;;;;;13.00;10.80;;;10.00;99.90;;;;;;5038295;28;20539;-84
2023/02/19 07:59:52;;;;;;;13.70;10.43;;;10.00;99.90;;;;;;5053732;28;20448;-84
2023/02/19 08:05:05;;;;;;;13.63;10.70;;;10.00;99.90;;;;;;5037048;28;20459;-84
2023/02/19 08:07:33;;;;;;;12.73;10.20;;;9.90;99.90;;;;;;5041767;28;20452;-84
2023/02/19 08:15:38;;;;;;;16.03;10.53;;;9.90;99.90;;;;;;5011663;28;20952;-83
2023/02/19 08:18:05;;;;;;;15.47;10.03;;;10.00;99.90;;;;;;5037188;28;20455;-83
2023/02/19 08:20:32;;;;;;;19.33;10.87;;;9.90;99.90;;;;;;5041860;28;20523;-84
2023/02/19 08:22:59;;;;;;;13.97;7.77;;;9.90;99.90;;;;;;5057491;28;20477;-84
2023/02/19 08:25:26;;;;;;;11.47;7.03;;;9.90;99.90;;;;;;5054545;28;20487;-85
2023/02/19 08:27:52;;;;;;;16.40;8.13;;;9.90;99.90;;;;;;5045375;28;20486;-84
2023/02/19 08:30:19;;;;;;;14.77;9.00;;;9.90;99.90;;;;;;5054014;28;20493;-83
2023/02/19 08:32:47;;;;;;;12.27;9.37;;;9.90;99.90;;;;;;5039426;28;20440;-84
2023/02/19 08:35:14;;;;;;;16.13;8.73;;;9.90;99.90;;;;;;5050214;28;20588;-84
2023/02/19 08:37:41;;;;;;;13.77;9.10;;;9.90;99.90;;;;;;5053997;28;21034;-84
2023/02/19 08:40:09;;;;;;;14.03;8.77;;;10.00;99.90;;;;;;5045071;28;20491;-84
2023/02/19 08:42:36;;;;;;;15.47;8.20;;;10.10;99.90;;;;;;5038404;28;20497;-85
2023/02/19 08:45:03;;;;;;;17.83;9.80;;;10.10;99.90;;;;;;5049086;28;20454;-85
2023/02/19 08:47:30;;;;;;;13.50;8.80;;;10.10;99.90;;;;;;5057762;28;20535;-84
2023/02/19 08:49:59;;;;;;;13.70;9.83;;;10.10;99.90;;;;;;5048172;28;20831;-84
2023/02/19 08:52:25;;;;;;;18.63;9.40;;;10.20;99.90;;;;;;5056886;28;20802;-85
2023/02/19 08:54:52;;;;;;;18.90;10.77;;;10.30;99.90;;;;;;5054421;28;20457;-85
2023/02/19 08:57:19;;;;;;;10.60;9.50;;;10.30;99.90;;;;;;5053133;28;20860;-84
2023/02/19 08:59:46;;;;;;;13.67;9.90;;;10.60;99.90;;;;;;5055431;28;20541;-85
2023/02/19 09:02:13;;;;;;;15.27;8.73;;;10.80;99.90;;;;;;5056294;28;20582;-85
2023/02/19 09:04:39;;;;;;;20.93;9.47;;;10.90;99.90;;;;;;5047889;28;20518;-84
2023/02/19 09:07:09;;;;;;;13.93;8.80;;;11.10;99.90;;;;;;5039043;28;21007;-84
2023/02/19 09:09:37;;;;;;;13.10;8.80;;;11.00;99.90;;;;;;5055478;28;20463;-85
2023/02/19 09:12:08;;;;;;;15.20;8.57;;;11.10;99.90;;;;;;5056277;28;20464;-84
2023/02/19 09:14:35;;;;;;;14.70;8.93;;;10.90;99.90;;;;;;5056910;28;20491;-84
2023/02/19 09:17:04;;;;;;;10.10;7.23;;;10.70;99.90;;;;;;5057336;28;20875;-85
2023/02/19 09:19:31;;;;;;;9.90;7.90;;;10.70;99.90;;;;;;5054160;28;20494;-86
2023/02/19 09:21:58;;;;;;;14.17;7.73;;;10.70;99.90;;;;;;5045008;28;21032;-86
2023/02/19 09:24:26;;;;;;;9.50;7.17;;;10.70;99.90;;;;;;5049293;28;20538;-86
2023/02/19 09:26:54;;;;;;;14.40;7.47;;;10.70;99.90;;;;;;5055981;28;20491;-86
2023/02/19 09:29:24;;;;;;;14.33;8.60;;;10.60;99.90;;;;;;5052072;28;20493;-86
2023/02/19 09:31:51;;;;;;;10.00;7.03;;;10.70;99.90;;;;;;5047819;28;20999;-85
2023/02/19 09:34:17;;;;;;;10.27;6.93;;;10.70;99.90;;;;;;5050250;28;20585;-85
2023/02/19 09:36:44;;;;;;;15.93;7.70;;;10.70;99.90;;;;;;5055720;28;20830;-85
2023/02/19 09:39:11;;;;;;;14.57;6.90;;;10.70;99.90;;;;;;5039879;28;20463;-86
2023/02/19 09:41:45;;;;;;;9.77;6.67;;;10.80;99.90;;;;;;5057020;28;20520;-85
2023/02/19 09:44:16;;;;;;;10.30;6.30;;;10.80;99.90;;;;;;5056797;28;20467;-84
2023/02/19 09:46:46;;;;;;;10.57;6.13;;;10.90;99.90;;;;;;5056242;28;20458;-85
2023/02/19 09:49:16;;;;;;;10.40;6.33;;;11.10;99.90;;;;;;5047819;28;20992;-83
2023/02/19 09:51:49;;;;;;;10.60;5.90;;;11.40;99.90;;;;;;5052150;28;20480;-84
2023/02/19 09:54:21;;;;;;;12.10;6.03;;;11.60;99.90;;;;;;5053305;28;20515;-86
2023/02/19 09:56:49;;;;;;;8.63;4.83;;;11.50;99.90;;;;;;5042631;28;20456;-85
2023/02/19 09:59:20;;;;;;;25.30;8.00;;;11.40;99.90;;;;;;5057908;28;20864;-85
2023/02/19 10:01:53;;;;;;;7.90;5.60;;;11.20;99.90;;;;;;5082011;22;20497;-81
2023/02/19 10:04:19;;;;;;;8.90;5.53;;;11.20;99.90;;;;;;5088609;28;20532;-81
2023/02/19 10:06:47;;;;;;;13.73;7.00;;;11.20;99.90;;;;;;5085106;28;20828;-81
2023/02/19 10:09:22;;;;;;;14.83;6.47;;;11.10;99.90;;;;;;5086313;28;20955;-81
2023/02/19 10:11:51;;;;;;;10.77;6.77;;;10.90;99.90;;;;;;5084456;28;20478;-82
2023/02/19 10:14:24;;;;;;;10.43;6.87;;;10.70;99.90;;;;;;5063940;28;20841;-82
2023/02/19 10:16:52;;;;;;;12.03;6.67;;;10.80;99.90;;;;;;5079666;28;20490;-82
2023/02/19 10:19:19;;;;;;;14.97;7.53;;;10.80;99.90;;;;;;5066073;28;20458;-81
2023/02/19 10:21:46;;;;;;;7.40;6.03;;;10.80;99.90;;;;;;5074408;28;20501;-81
2023/02/19 10:24:20;;;;;;;10.57;6.13;;;11.20;99.90;;;;;;5090208;28;20450;-81
2023/02/19 10:26:49;;;;;;;12.60;6.30;;;11.50;99.90;;;;;;5081323;28;20464;-81
2023/02/19 10:29:18;;;;;;;8.73;5.37;;;11.70;99.90;;;;;;5083175;28;20461;-81
2023/02/19 10:31:47;;;;;;;6.50;5.10;;;11.80;99.90;;;;;;5074779;28;20478;-81
2023/02/19 10:34:20;;;;;;;6.67;5.40;;;11.90;99.90;;;;;;5073563;28;20459;-81
2023/02/19 10:36:49;;;;;;;6.57;5.10;;;12.10;99.90;;;;;;5066683;28;20436;-82
2023/02/19 10:39:38;;;;;;;9.00;5.53;;;12.30;99.90;;;;;;5076401;28;20463;-81
2023/02/19 10:42:05;;;;;;;7.80;5.00;;;12.20;99.90;;;;;;5068423;28;20489;-84
2023/02/19 10:44:41;;;;;;;8.90;4.30;;;12.70;65.40;;;;;;5075449;28;21039;-83
2023/02/19 10:47:14;;;;;;;6.83;4.50;;;12.70;18.50;;;;;;5081354;28;20546;-83
2023/02/19 10:49:42;;;;;;;7.57;4.37;;;12.40;6.00;;;;;;5070977;28;20454;-84
2023/02/19 10:52:18;;;;;;;7.40;3.87;;;12.30;1.00;;;;;;5062970;28;20476;-83
2023/02/19 10:54:49;;;;;;;4.80;3.23;;;12.10;29.10;;;;;;5063851;28;20448;-82
2023/02/19 10:57:28;;;;;;;7.73;4.03;;;12.00;4.50;;;;;;5063956;28;20447;-83
2023/02/19 11:00:00;;;;;;;6.83;3.90;;;12.20;32.90;;;;;;5073995;28;20447;-82
2023/02/19 11:02:28;;;;;;;7.27;4.33;;;12.20;1.60;;;;;;5067057;28;20521;-83
2023/02/19 11:05:18;;;;;;;4.83;3.30;;;12.50;1.00;;;;;;5059623;28;20526;-80
2023/02/19 11:07:48;;;;;;;5.63;3.10;;;12.50;1.00;;;;;;5067216;28;20546;-81
2023/02/19 11:10:26;;;;;;;7.80;3.93;;;12.60;1.00;;;;;;5062764;28;20480;-81
2023/02/19 11:12:56;;;;;;;9.37;4.40;;;12.90;1.00;;;;;;5067866;28;20476;-82
2023/02/19 11:15:28;;;;;;;6.47;3.53;;;13.10;1.00;;;;;;5074822;28;20902;-81
2023/02/19 11:17:59;;;;;;;5.97;2.60;;;13.20;1.00;;;;;;5077398;28;20448;-80
2023/02/19 11:20:28;;;;;;;5.10;3.50;;;13.10;1.00;;;;;;5078895;28;20475;-79
2023/02/19 11:22:59;;;;;;;6.50;3.93;;;12.70;1.00;;;;;;5067907;28;20484;-80
2023/02/19 11:25:27;;;;;;;10.07;3.77;;;12.80;1.00;;;;;;5066584;28;20441;-80
2023/02/19 11:27:55;;;;;;;6.53;3.83;;;13.00;1.00;;;;;;5063993;28;20487;-81
2023/02/19 11:30:34;;;;;;;6.77;3.30;;;13.00;1.00;;;;;;5059153;28;20458;-79
2023/02/19 11:33:22;;;;;;;3.77;3.00;;;13.50;1.00;;;;;;5060026;28;20473;-79
2023/02/19 11:35:49;;;;;;;3.40;2.63;;;14.10;1.00;;;;;;5069291;28;20459;-80
2023/02/19 11:38:18;;;;;;;5.07;3.43;;;13.80;99.90;;;;;;5080151;28;20970;-80
2023/02/19 11:40:51;;;;;;;6.50;3.00;;;13.80;1.00;;;;;;5073731;28;20597;-80
2023/02/19 11:43:34;;;;;;;6.37;3.13;;;13.80;99.90;;;;;;5081266;28;20497;-81
2023/02/19 11:46:08;;;;;;;4.20;2.83;;;13.80;1.00;;;;;;5064616;28;20960;-81
2023/02/19 11:48:47;;;;;;;3.37;2.80;;;13.80;1.00;;;;;;5061969;28;20499;-82
2023/02/19 11:51:48;;;;;;;5.63;2.93;;;14.30;99.90;;;;;;5077826;28;20466;-80
2023/02/19 11:54:32;;;;;;;4.23;2.80;;;14.90;44.90;;;;;;5057164;28;20458;-80
2023/02/19 11:57:06;;;;;;;3.47;2.20;;;15.40;27.80;;;;;;5062286;28;20534;-81
2023/02/19 11:59:42;;;;;;;3.67;2.17;;;15.50;99.90;;;;;;5065436;28;20474;-80
2023/02/19 12:02:31;;;;;;;4.73;2.27;;;15.10;1.00;;;;;;5077597;28;20494;-81
2023/02/19 12:05:29;;;;;;;3.33;2.10;;;14.90;1.00;;;;;;5073036;28;20453;-81
2023/02/19 12:08:21;;;;;;;3.37;2.17;;;14.40;99.90;;;;;;5057849;28;20448;-81
2023/02/19 12:11:00;;;;;;;4.43;2.00;;;13.80;99.90;;;;;;5080994;28;20471;-80
2023/02/19 12:13:38;;;;;;;5.03;2.80;;;13.40;1.00;;;;;;5077592;28;20550;-80
2023/02/19 12:16:19;;;;;;;3.63;1.90;;;13.20;91.20;;;;;;5078050;28;20445;-81
2023/02/19 12:19:07;;;;;;;4.77;1.70;;;12.70;44.30;;;;;;5068980;28;20519;-80
2023/02/19 12:21:50;;;;;;;5.30;2.07;;;12.30;99.90;;;;;;5081617;28;20448;-81
2023/02/19 12:25:00;;;;;;;3.43;1.90;;;12.20;1.00;;;;;;5066115;28;20455;-81
2023/02/19 12:27:41;;;;;;;4.80;2.00;;;12.40;1.00;;;;;;5057577;28;20534;-78
2023/02/19 12:30:30;;;;;;;4.43;2.70;;;12.50;1.00;;;;;;5085383;28;20653;-81
2023/02/19 12:33:10;;;;;;;5.13;2.60;;;12.80;1.00;;;;;;5066168;28;20479;-81
2023/02/19 12:35:48;;;;;;;3.47;2.63;;;13.20;99.90;;;;;;5071415;28;20454;-81
2023/02/19 12:38:22;;;;;;;3.87;2.60;;;13.60;99.90;;;;;;5069497;28;20435;-80
2023/02/19 12:41:18;;;;;;;2.97;2.67;;;13.70;1.00;;;;;;5081988;28;20438;-80
2023/02/19 12:43:53;;;;;;;5.00;2.30;;;13.90;1.00;;;;;;5061945;28;20489;-80
2023/02/19 12:46:25;;;;;;;6.20;2.83;;;14.00;99.90;;;;;;5062500;28;20530;-79
2023/02/19 12:48:58;;;;;;;3.73;2.50;;;13.90;88.20;;;;;;5068263;28;20841;-82
2023/02/19 12:51:33;;;;;;;4.50;2.43;;;13.60;99.90;;;;;;5068650;28;20477;-80
2023/02/19 12:54:02;;;;;;;2.73;2.00;;;13.40;1.00;;;;;;5078980;28;20454;-80
2023/02/19 12:56:35;;;;;;;3.43;2.50;;;13.30;1.00;;;;;;5067988;28;20445;-80
2023/02/19 12:59:07;;;;;;;2.77;1.97;;;13.20;52.50;;;;;;5077570;28;20471;-82
2023/02/19 13:01:43;;;;;;;5.10;3.03;;;12.80;99.90;;;;;;5079793;28;20521;-82
2023/02/19 13:04:32;;;;;;;3.87;3.13;;;12.30;1.00;;;;;;5075521;28;20510;-84
2023/02/19 13:07:07;;;;;;;4.90;3.40;;;12.00;1.00;;;;;;5071028;28;20456;-82
2023/02/19 13:09:38;;;;;;;4.20;2.50;;;11.70;1.00;;;;;;5067498;28;20440;-82
2023/02/19 13:12:20;;;;;;;3.90;2.70;;;11.60;1.00;;;;;;5080038;28;20483;-81
2023/02/19 13:14:51;;;;;;;3.27;2.40;;;11.50;34.90;;;;;;5072564;28;20543;-85
2023/02/19 13:17:25;;;;;;;6.17;2.50;;;11.40;44.70;;;;;;5067556;28;20808;-81
2023/02/19 13:20:08;;;;;;;4.10;2.60;;;11.20;86.90;;;;;;5075511;28;20554;-81
2023/02/19 13:25:38;;;;;;;5.93;2.80;;;11.00;99.90;;;;;;5077856;28;20533;-83
2023/02/19 13:28:12;;;;;;;4.20;2.43;;;11.10;99.90;;;;;;5075895;28;20525;-81